createdAt,value
2018-12-15T00:29:20.830Z,1.58
2018-12-15T00:29:21.399Z,1.52
2018-12-15T00:29:21.996Z,1.60
2018-12-15T00:29:22.596Z,1.57
2018-12-15T00:29:23.196Z,1.57
2018-12-15T00:29:23.798Z,1.60
2018-12-15T00:29:24.395Z,1.62
2018-12-15T00:29:24.995Z,1.57
2018-12-15T00:30:19.481Z,1.60
2018-12-15T00:30:20.076Z,1.55
2018-12-15T00:30:20.672Z,1.55
2018-12-15T00:30:21.273Z,1.51
2018-12-15T00:30:21.871Z,1.60
2018-12-15T00:30:22.472Z,1.57
2018-12-15T00:30:23.076Z,1.52
2018-12-15T00:30:23.671Z,1.58
2018-12-15T00:31:18.155Z,1.55
2018-12-15T00:31:18.749Z,1.57
2018-12-15T00:31:19.350Z,1.58
2018-12-15T00:31:19.948Z,1.58
2018-12-15T00:31:20.550Z,1.61
2018-12-15T00:31:21.150Z,1.60
2018-12-15T00:31:21.748Z,1.58
2018-12-15T00:31:22.347Z,1.55
2018-12-15T00:32:15.805Z,1.60
2018-12-15T00:32:16.407Z,1.54
2018-12-15T00:32:17.008Z,1.62
2018-12-15T00:32:17.603Z,1.60
2018-12-15T00:32:18.204Z,1.58
2018-12-15T00:32:18.801Z,1.58
2018-12-15T00:32:19.406Z,1.60
2018-12-15T00:32:20.002Z,1.61
2018-12-15T00:33:14.482Z,1.62
2018-12-15T00:33:15.080Z,1.55
2018-12-15T00:33:15.679Z,1.54
2018-12-15T00:33:16.278Z,1.58
2018-12-15T00:33:16.878Z,1.54
2018-12-15T00:33:17.478Z,1.57
2018-12-15T00:33:18.077Z,1.57
2018-12-15T00:33:18.677Z,1.57
2018-12-15T00:34:13.157Z,1.60
2018-12-15T00:34:13.754Z,1.44
2018-12-15T00:34:14.352Z,1.58
2018-12-15T00:34:14.953Z,1.57
2018-12-15T00:34:15.569Z,1.52
2018-12-15T00:34:16.151Z,1.54
2018-12-15T00:34:16.754Z,1.54
2018-12-15T00:34:17.352Z,1.46
2018-12-15T00:35:11.864Z,1.54
2018-12-15T00:35:12.430Z,1.51
2018-12-15T00:35:13.034Z,1.52
2018-12-15T00:35:13.632Z,1.50
2018-12-15T00:35:14.230Z,1.57
2018-12-15T00:35:14.829Z,1.64
2018-12-15T00:35:16.380Z,1.52
2018-12-15T00:36:10.407Z,1.46
2018-12-15T00:36:11.004Z,1.62
2018-12-15T00:36:11.608Z,1.64
2018-12-15T00:36:12.205Z,1.54
2018-12-15T00:36:12.805Z,1.57
2018-12-15T00:36:13.403Z,1.61
2018-12-15T00:36:14.005Z,1.51
2018-12-15T00:36:14.604Z,1.51
2018-12-15T00:37:09.082Z,1.60
2018-12-15T00:37:09.681Z,1.54
2018-12-15T00:37:10.281Z,1.64
2018-12-15T00:37:10.876Z,1.55
2018-12-15T00:37:11.478Z,1.69
2018-12-15T00:37:12.078Z,1.61
2018-12-15T00:37:12.677Z,1.54
2018-12-15T00:37:13.277Z,1.61
2018-12-15T00:38:06.734Z,1.61
2018-12-15T00:38:07.333Z,1.62
2018-12-15T00:38:07.932Z,1.60
2018-12-15T00:38:08.533Z,1.61
2018-12-15T00:38:09.132Z,1.58
2018-12-15T00:38:09.731Z,1.61
2018-12-15T00:38:10.331Z,1.61
2018-12-15T00:38:10.932Z,1.62
2018-12-15T00:39:05.409Z,1.60
2018-12-15T00:39:06.010Z,1.65
2018-12-15T00:39:06.607Z,1.68
2018-12-15T00:39:07.207Z,1.64
2018-12-15T00:39:07.806Z,1.72
2018-12-15T00:39:08.407Z,1.65
2018-12-15T00:39:09.006Z,1.72
2018-12-15T00:39:09.604Z,1.64
2018-12-15T00:40:03.098Z,1.71
2018-12-15T00:40:03.663Z,1.75
2018-12-15T00:40:04.259Z,1.68
2018-12-15T00:40:04.859Z,1.68
2018-12-15T00:40:05.461Z,1.71
2018-12-15T00:40:06.061Z,1.69
2018-12-15T00:40:06.658Z,1.69
2018-12-15T00:40:07.259Z,1.73
2018-12-15T00:41:00.721Z,1.71
2018-12-15T00:41:01.311Z,1.82
2018-12-15T00:41:01.920Z,1.68
2018-12-15T00:41:02.516Z,1.80
2018-12-15T00:41:03.111Z,1.68
2018-12-15T00:41:03.712Z,1.68
2018-12-15T00:41:04.310Z,1.75
2018-12-15T00:41:04.914Z,1.71
2018-12-15T00:42:05.844Z,1.71
2018-12-15T00:42:06.438Z,1.68
2018-12-15T00:42:07.037Z,1.79
2018-12-15T00:42:07.637Z,1.73
2018-12-15T00:42:08.237Z,1.72
2018-12-15T00:42:08.837Z,1.62
2018-12-15T00:42:09.435Z,1.73
2018-12-15T00:42:10.042Z,1.73
2018-12-15T00:42:10.638Z,1.65
2018-12-15T00:42:11.234Z,1.68
2018-12-15T00:42:11.832Z,1.65
2018-12-15T00:42:12.436Z,1.65
2018-12-15T00:43:34.420Z,1.69
2018-12-15T00:43:35.014Z,1.73
2018-12-15T00:43:35.614Z,1.68
2018-12-15T00:43:36.215Z,1.73
2018-12-15T00:43:36.813Z,1.79
2018-12-15T00:43:37.416Z,1.82
2018-12-15T00:43:38.015Z,1.75
2018-12-15T00:43:38.617Z,1.82
2018-12-15T00:43:39.221Z,1.72
2018-12-15T00:43:39.815Z,1.87
2018-12-15T00:43:40.414Z,1.83
2018-12-15T00:43:41.059Z,1.73
2018-12-15T00:44:35.041Z,1.76
2018-12-15T00:44:35.639Z,1.82
2018-12-15T00:44:36.237Z,1.76
2018-12-15T00:44:36.844Z,1.85
2018-12-15T00:44:37.439Z,1.78
2018-12-15T00:44:38.036Z,1.82
2018-12-15T00:44:38.635Z,1.80
2018-12-15T00:45:35.181Z,1.79
2018-12-15T00:45:35.745Z,1.80
2018-12-15T00:45:36.348Z,1.89
2018-12-15T00:46:31.368Z,1.89
2018-12-15T00:46:31.963Z,1.89
2018-12-15T00:46:32.565Z,1.94
2018-12-15T00:46:33.163Z,1.90
2018-12-15T00:46:33.763Z,1.87
2018-12-15T00:46:34.362Z,1.90
2018-12-15T00:46:34.962Z,1.89
2018-12-15T00:47:29.429Z,1.90
2018-12-15T00:47:30.032Z,1.93
2018-12-15T00:47:30.629Z,1.90
2018-12-15T00:47:31.224Z,1.90
2018-12-15T00:47:31.823Z,1.90
2018-12-15T00:47:32.423Z,1.87
2018-12-15T00:47:33.024Z,1.97
2018-12-15T00:47:33.624Z,1.90
2018-12-15T00:48:27.593Z,1.83
2018-12-15T00:48:28.195Z,1.98
2018-12-15T00:48:28.789Z,1.89
2018-12-15T00:48:29.390Z,1.90
2018-12-15T00:48:29.988Z,1.98
2018-12-15T00:48:31.154Z,1.89
2018-12-15T00:48:31.660Z,1.91
2018-12-15T00:49:25.658Z,1.93
2018-12-15T00:49:26.252Z,2.01
2018-12-15T00:49:26.851Z,1.98
2018-12-15T00:49:27.451Z,1.97
2018-12-15T00:49:28.051Z,1.93
2018-12-15T00:49:28.652Z,2.01
2018-12-15T00:49:29.251Z,1.97
2018-12-15T00:49:29.853Z,1.99
2018-12-15T00:50:23.308Z,1.98
2018-12-15T00:50:23.904Z,2.02
2018-12-15T00:50:24.503Z,2.02
2018-12-15T00:50:25.102Z,1.99
2018-12-15T00:50:25.703Z,2.02
2018-12-15T00:50:26.307Z,2.04
2018-12-15T00:50:26.904Z,2.01
2018-12-15T00:50:27.506Z,2.04
2018-12-15T00:51:20.985Z,1.98
2018-12-15T00:51:21.555Z,1.99
2018-12-15T00:51:22.155Z,2.02
2018-12-15T00:51:22.753Z,2.02
2018-12-15T00:51:23.356Z,2.04
2018-12-15T00:51:23.955Z,2.09
2018-12-15T00:51:24.553Z,2.01
2018-12-15T00:51:25.154Z,2.06
2018-12-15T00:52:18.612Z,1.98
2018-12-15T00:52:19.209Z,2.06
2018-12-15T00:52:19.806Z,2.02
2018-12-15T00:52:20.406Z,2.02
2018-12-15T00:52:21.006Z,2.02
2018-12-15T00:52:21.607Z,2.09
2018-12-15T00:52:22.205Z,1.99
2018-12-15T00:52:22.808Z,2.04
2018-12-15T00:53:17.290Z,2.12
2018-12-15T00:53:17.880Z,2.10
2018-12-15T00:53:18.485Z,2.15
2018-12-15T00:53:19.080Z,2.13
2018-12-15T00:53:19.683Z,2.15
2018-12-15T00:53:20.282Z,2.01
2018-12-15T00:53:20.884Z,2.09
2018-12-15T00:53:21.481Z,2.09
2018-12-15T00:54:14.940Z,2.10
2018-12-15T00:54:15.538Z,2.08
2018-12-15T00:54:16.135Z,2.08
2018-12-15T00:54:16.734Z,2.10
2018-12-15T00:54:17.337Z,2.06
2018-12-15T00:54:17.935Z,2.08
2018-12-15T00:54:18.535Z,2.12
2018-12-15T00:54:19.133Z,2.12
2018-12-15T00:55:12.588Z,2.06
2018-12-15T00:55:13.191Z,2.13
2018-12-15T00:55:13.786Z,2.09
2018-12-15T00:55:14.387Z,2.17
2018-12-15T00:55:14.986Z,2.08
2018-12-15T00:55:15.585Z,2.15
2018-12-15T00:55:16.190Z,2.15
2018-12-15T00:55:16.786Z,2.15
2018-12-15T00:56:11.290Z,2.17
2018-12-15T00:56:11.860Z,2.17
2018-12-15T00:56:12.462Z,2.20
2018-12-15T00:56:13.066Z,2.19
2018-12-15T00:56:13.659Z,2.17
2018-12-15T00:56:14.259Z,2.16
2018-12-15T00:56:14.863Z,2.17
2018-12-15T00:56:15.459Z,2.22
2018-12-15T00:57:08.916Z,2.16
2018-12-15T00:57:09.513Z,2.17
2018-12-15T00:57:10.113Z,2.15
2018-12-15T00:57:10.713Z,2.13
2018-12-15T00:57:11.317Z,2.15
2018-12-15T00:57:11.912Z,2.19
2018-12-15T00:57:12.511Z,2.17
2018-12-15T00:57:13.117Z,2.20
2018-12-15T00:58:06.568Z,2.13
2018-12-15T00:58:07.170Z,2.13
2018-12-15T00:58:07.765Z,2.16
2018-12-15T00:58:08.367Z,2.12
2018-12-15T00:58:08.966Z,2.12
2018-12-15T00:58:09.565Z,2.12
2018-12-15T00:58:10.232Z,2.16
2018-12-15T00:58:10.767Z,2.19
2018-12-15T00:59:04.221Z,2.27
2018-12-15T00:59:04.817Z,2.23
2018-12-15T00:59:05.421Z,2.20
2018-12-15T00:59:06.026Z,2.23
2018-12-15T00:59:06.618Z,2.20
2018-12-15T00:59:07.217Z,2.20
2018-12-15T00:59:07.817Z,2.20
2018-12-15T00:59:08.416Z,2.20
2018-12-15T01:00:01.881Z,2.23
2018-12-15T01:00:02.467Z,2.28
2018-12-15T01:00:03.068Z,2.17
2018-12-15T01:00:03.669Z,2.23
2018-12-15T01:00:04.268Z,2.22
2018-12-15T01:00:04.867Z,2.22
2018-12-15T01:00:05.470Z,2.19
2018-12-15T01:00:06.067Z,2.20
2018-12-15T01:01:00.547Z,2.20
2018-12-15T01:01:01.144Z,2.22
2018-12-15T01:01:01.745Z,2.34
2018-12-15T01:01:02.344Z,2.31
2018-12-15T01:01:02.943Z,2.27
2018-12-15T01:01:03.543Z,2.26
2018-12-15T01:01:04.142Z,2.17
2018-12-15T01:01:04.742Z,2.27
2018-12-15T01:01:58.227Z,2.34
2018-12-15T01:01:58.796Z,2.31
2018-12-15T01:01:59.398Z,2.33
2018-12-15T01:01:59.996Z,2.27
2018-12-15T01:02:00.595Z,2.30
2018-12-15T01:02:01.198Z,2.30
2018-12-15T01:02:01.797Z,2.19
2018-12-15T01:02:02.395Z,2.27
2018-12-15T01:02:55.864Z,2.34
2018-12-15T01:02:56.449Z,2.30
2018-12-15T01:02:57.048Z,2.28
2018-12-15T01:02:58.426Z,2.31
2018-12-15T01:02:58.926Z,2.27
2018-12-15T01:02:59.528Z,2.28
2018-12-15T01:03:00.125Z,2.33
2018-12-15T01:03:53.606Z,2.27
2018-12-15T01:03:54.201Z,2.26
2018-12-15T01:03:54.800Z,2.34
2018-12-15T01:03:55.399Z,2.34
2018-12-15T01:03:55.999Z,2.28
2018-12-15T01:03:56.599Z,2.27
2018-12-15T01:03:57.205Z,2.30
2018-12-15T01:03:57.800Z,2.28
2018-12-15T01:04:51.255Z,2.27
2018-12-15T01:04:51.853Z,2.38
2018-12-15T01:04:52.453Z,2.34
2018-12-15T01:04:53.056Z,2.38
2018-12-15T01:04:53.658Z,2.37
2018-12-15T01:04:54.253Z,2.30
2018-12-15T01:04:54.853Z,2.35
2018-12-15T01:04:55.455Z,2.34
2018-12-15T01:05:49.931Z,2.37
2018-12-15T01:05:50.530Z,2.34
2018-12-15T01:05:51.128Z,2.31
2018-12-15T01:05:51.729Z,2.30
2018-12-15T01:05:52.385Z,2.33
2018-12-15T01:05:52.928Z,2.34
2018-12-15T01:05:53.528Z,2.37
2018-12-15T01:05:54.129Z,2.33
2018-12-15T01:06:47.613Z,2.27
2018-12-15T01:06:48.183Z,2.37
2018-12-15T01:06:48.783Z,2.34
2018-12-15T01:06:49.381Z,2.30
2018-12-15T01:06:49.981Z,2.44
2018-12-15T01:06:50.581Z,2.40
2018-12-15T01:06:51.180Z,2.28
2018-12-15T01:06:51.783Z,2.38
2018-12-15T01:07:46.258Z,2.41
2018-12-15T01:07:46.857Z,2.41
2018-12-15T01:07:47.463Z,2.34
2018-12-15T01:07:48.059Z,2.44
2018-12-15T01:07:48.656Z,2.44
2018-12-15T01:07:49.255Z,2.44
2018-12-15T01:07:49.855Z,2.37
2018-12-15T01:07:50.455Z,2.44
2018-12-15T01:08:43.913Z,2.41
2018-12-15T01:08:44.509Z,2.46
2018-12-15T01:08:45.109Z,2.46
2018-12-15T01:08:45.708Z,2.41
2018-12-15T01:08:46.307Z,2.46
2018-12-15T01:08:46.907Z,2.45
2018-12-15T01:08:47.512Z,2.46
2018-12-15T01:08:48.108Z,2.38
2018-12-15T01:09:41.564Z,2.45
2018-12-15T01:09:42.161Z,2.48
2018-12-15T01:09:42.761Z,2.40
2018-12-15T01:09:43.359Z,2.40
2018-12-15T01:09:43.960Z,2.49
2018-12-15T01:09:44.559Z,2.44
2018-12-15T01:09:45.159Z,2.41
2018-12-15T01:09:45.764Z,2.45
2018-12-15T01:10:39.216Z,2.49
2018-12-15T01:10:39.815Z,2.45
2018-12-15T01:10:40.412Z,2.41
2018-12-15T01:10:41.010Z,2.44
2018-12-15T01:10:41.611Z,2.45
2018-12-15T01:10:42.214Z,2.38
2018-12-15T01:10:42.811Z,2.48
2018-12-15T01:10:43.411Z,2.35
2018-12-15T01:11:37.916Z,2.34
2018-12-15T01:11:38.486Z,2.37
2018-12-15T01:11:39.086Z,2.44
2018-12-15T01:11:39.686Z,2.44
2018-12-15T01:11:40.285Z,2.46
2018-12-15T01:11:40.886Z,2.41
2018-12-15T01:11:41.487Z,2.46
2018-12-15T01:11:42.100Z,2.45
2018-12-15T01:12:35.546Z,2.41
2018-12-15T01:12:36.143Z,2.48
2018-12-15T01:12:36.740Z,2.38
2018-12-15T01:12:37.339Z,2.52
2018-12-15T01:12:37.938Z,2.45
2018-12-15T01:12:38.539Z,2.40
2018-12-15T01:12:39.139Z,2.41
2018-12-15T01:12:39.738Z,2.44
2018-12-15T01:13:33.199Z,2.51
2018-12-15T01:13:33.796Z,2.52
2018-12-15T01:13:34.390Z,2.51
2018-12-15T01:13:34.990Z,2.38
2018-12-15T01:13:35.591Z,2.45
2018-12-15T01:13:36.194Z,2.30
2018-12-15T01:13:36.789Z,2.53
2018-12-15T01:13:37.390Z,2.46
2018-12-15T01:14:30.848Z,2.45
2018-12-15T01:14:31.444Z,2.41
2018-12-15T01:14:32.043Z,2.41
2018-12-15T01:14:32.644Z,2.41
2018-12-15T01:14:33.243Z,2.53
2018-12-15T01:14:33.843Z,2.34
2018-12-15T01:14:34.442Z,2.52
2018-12-15T01:14:35.049Z,2.53
2018-12-15T01:15:29.523Z,2.41
2018-12-15T01:15:30.121Z,2.49
2018-12-15T01:15:30.718Z,2.35
2018-12-15T01:15:31.322Z,2.46
2018-12-15T01:15:31.918Z,2.37
2018-12-15T01:15:32.519Z,2.41
2018-12-15T01:15:33.122Z,2.49
2018-12-15T01:15:33.717Z,2.41
2018-12-15T01:16:27.206Z,2.41
2018-12-15T01:16:27.771Z,2.44
2018-12-15T01:16:28.369Z,2.46
2018-12-15T01:16:28.971Z,2.49
2018-12-15T01:16:29.569Z,2.41
2018-12-15T01:16:30.169Z,2.37
2018-12-15T01:16:30.770Z,2.38
2018-12-15T01:16:31.369Z,2.46
2018-12-15T01:17:24.824Z,2.48
2018-12-15T01:17:25.421Z,2.46
2018-12-15T01:17:26.021Z,2.41
2018-12-15T01:17:26.621Z,2.40
2018-12-15T01:17:27.221Z,2.46
2018-12-15T01:17:27.822Z,2.45
2018-12-15T01:17:28.422Z,2.48
2018-12-15T01:17:29.020Z,2.41
2018-12-15T01:18:24.014Z,2.45
2018-12-15T01:18:24.611Z,2.41
2018-12-15T01:18:25.214Z,2.41
2018-12-15T01:18:25.809Z,2.48
2018-12-15T01:18:26.411Z,2.38
2018-12-15T01:18:27.009Z,2.46
2018-12-15T01:18:27.614Z,2.35
2018-12-15T01:19:22.073Z,2.52
2018-12-15T01:19:22.670Z,2.44
2018-12-15T01:19:23.268Z,2.48
2018-12-15T01:19:23.875Z,2.46
2018-12-15T01:19:24.474Z,2.51
2018-12-15T01:19:25.070Z,2.49
2018-12-15T01:19:25.672Z,2.38
2018-12-15T01:19:26.272Z,2.49
2018-12-15T01:20:19.726Z,2.45
2018-12-15T01:20:20.324Z,2.46
2018-12-15T01:20:20.955Z,2.44
2018-12-15T01:20:21.522Z,2.41
2018-12-15T01:20:22.122Z,2.46
2018-12-15T01:20:22.725Z,2.48
2018-12-15T01:20:23.323Z,2.49
2018-12-15T01:20:23.921Z,2.55
2018-12-15T01:21:18.402Z,2.45
2018-12-15T01:21:18.997Z,2.46
2018-12-15T01:21:19.596Z,2.49
2018-12-15T01:21:20.197Z,2.48
2018-12-15T01:21:20.797Z,2.46
2018-12-15T01:21:21.396Z,2.48
2018-12-15T01:21:21.996Z,2.44
2018-12-15T01:21:22.599Z,2.46
2018-12-15T01:22:16.079Z,2.49
2018-12-15T01:22:16.653Z,2.59
2018-12-15T01:22:17.251Z,2.59
2018-12-15T01:22:17.850Z,2.52
2018-12-15T01:22:18.450Z,2.56
2018-12-15T01:22:19.054Z,2.52
2018-12-15T01:22:19.651Z,2.59
2018-12-15T01:22:20.251Z,2.51
2018-12-15T01:23:13.704Z,2.46
2018-12-15T01:23:14.305Z,2.58
2018-12-15T01:23:14.902Z,2.56
2018-12-15T01:23:15.501Z,2.59
2018-12-15T01:23:16.101Z,2.63
2018-12-15T01:23:16.701Z,2.55
2018-12-15T01:23:17.308Z,2.58
2018-12-15T01:23:17.900Z,2.45
2018-12-15T01:24:11.357Z,2.55
2018-12-15T01:24:11.954Z,2.61
2018-12-15T01:24:12.564Z,2.56
2018-12-15T01:24:13.156Z,2.51
2018-12-15T01:24:13.755Z,2.58
2018-12-15T01:24:14.360Z,2.58
2018-12-15T01:24:14.954Z,2.59
2018-12-15T01:24:15.552Z,2.55
2018-12-15T01:25:10.031Z,2.64
2018-12-15T01:25:10.629Z,2.52
2018-12-15T01:25:11.227Z,2.55
2018-12-15T01:25:11.829Z,2.58
2018-12-15T01:25:12.428Z,2.59
2018-12-15T01:25:13.028Z,2.59
2018-12-15T01:25:13.628Z,2.56
2018-12-15T01:25:14.230Z,2.61
2018-12-15T01:26:07.684Z,2.59
2018-12-15T01:26:08.284Z,2.55
2018-12-15T01:26:08.885Z,2.55
2018-12-15T01:26:09.486Z,2.66
2018-12-15T01:26:10.079Z,2.56
2018-12-15T01:26:10.683Z,2.56
2018-12-15T01:26:11.284Z,2.58
2018-12-15T01:26:11.878Z,2.51
2018-12-15T01:27:05.336Z,2.55
2018-12-15T01:27:05.934Z,2.56
2018-12-15T01:27:06.548Z,2.58
2018-12-15T01:27:07.132Z,2.61
2018-12-15T01:27:07.735Z,2.61
2018-12-15T01:27:08.332Z,2.56
2018-12-15T01:27:08.932Z,2.58
2018-12-15T01:27:09.532Z,2.58
2018-12-15T01:28:04.035Z,2.56
2018-12-15T01:28:04.616Z,2.58
2018-12-15T01:28:05.208Z,2.56
2018-12-15T01:28:05.808Z,2.59
2018-12-15T01:28:06.410Z,2.58
2018-12-15T01:28:07.007Z,2.58
2018-12-15T01:28:07.605Z,2.58
2018-12-15T01:28:08.206Z,2.59
2018-12-15T01:29:01.663Z,2.59
2018-12-15T01:29:02.260Z,2.66
2018-12-15T01:29:02.863Z,2.64
2018-12-15T01:29:03.465Z,2.69
2018-12-15T01:29:04.062Z,2.66
2018-12-15T01:29:04.660Z,2.66
2018-12-15T01:29:05.260Z,2.66
2018-12-15T01:29:05.859Z,2.66
2018-12-15T01:30:00.338Z,2.64
2018-12-15T01:30:00.938Z,2.66
2018-12-15T01:30:01.535Z,2.63
2018-12-15T01:30:02.134Z,2.73
2018-12-15T01:30:02.738Z,2.69
2018-12-15T01:30:03.336Z,2.66
2018-12-15T01:30:03.934Z,2.61
2018-12-15T01:30:04.533Z,2.66
2018-12-15T01:30:59.526Z,2.63
2018-12-15T01:31:00.123Z,2.63
2018-12-15T01:31:00.722Z,2.64
2018-12-15T01:31:01.323Z,2.63
2018-12-15T01:31:01.921Z,2.63
2018-12-15T01:31:02.521Z,2.64
2018-12-15T01:31:03.122Z,2.64
2018-12-15T01:31:57.587Z,2.61
2018-12-15T01:31:58.184Z,2.66
2018-12-15T01:31:58.794Z,2.66
2018-12-15T01:31:59.383Z,2.66
2018-12-15T01:31:59.985Z,2.70
2018-12-15T01:32:00.587Z,2.59
2018-12-15T01:32:01.193Z,2.63
2018-12-15T01:32:01.783Z,2.59
2018-12-15T01:32:56.299Z,2.59
2018-12-15T01:32:56.860Z,2.58
2018-12-15T01:32:57.466Z,2.64
2018-12-15T01:32:58.061Z,2.58
2018-12-15T01:32:58.661Z,2.59
2018-12-15T01:32:59.260Z,2.59
2018-12-15T01:32:59.866Z,2.56
2018-12-15T01:33:00.459Z,2.59
2018-12-15T01:33:53.919Z,2.55
2018-12-15T01:33:54.513Z,2.61
2018-12-15T01:33:55.112Z,2.58
2018-12-15T01:33:55.713Z,2.56
2018-12-15T01:33:56.316Z,2.52
2018-12-15T01:33:56.911Z,2.58
2018-12-15T01:33:57.512Z,2.56
2018-12-15T01:33:58.112Z,2.58
2018-12-15T01:34:52.589Z,2.59
2018-12-15T01:34:53.188Z,2.55
2018-12-15T01:34:53.787Z,2.55
2018-12-15T01:34:54.389Z,2.61
2018-12-15T01:34:54.988Z,2.58
2018-12-15T01:34:55.586Z,2.59
2018-12-15T01:34:56.188Z,2.58
2018-12-15T01:34:56.786Z,2.59
2018-12-15T01:35:51.266Z,2.66
2018-12-15T01:35:51.862Z,2.59
2018-12-15T01:35:52.462Z,2.55
2018-12-15T01:35:53.064Z,2.56
2018-12-15T01:35:53.666Z,2.55
2018-12-15T01:35:54.264Z,2.53
2018-12-15T01:35:54.861Z,2.52
2018-12-15T01:35:55.460Z,2.56
2018-12-15T01:36:49.970Z,2.53
2018-12-15T01:36:50.538Z,2.58
2018-12-15T01:36:51.138Z,2.55
2018-12-15T01:36:51.739Z,2.55
2018-12-15T01:36:52.341Z,2.63
2018-12-15T01:36:52.937Z,2.61
2018-12-15T01:36:53.537Z,2.56
2018-12-15T01:36:54.138Z,2.51
2018-12-15T01:37:47.597Z,2.58
2018-12-15T01:37:48.191Z,2.59
2018-12-15T01:37:48.791Z,2.59
2018-12-15T01:37:49.391Z,2.53
2018-12-15T01:37:49.990Z,2.52
2018-12-15T01:37:50.589Z,2.53
2018-12-15T01:37:51.191Z,2.55
2018-12-15T01:37:51.791Z,2.53
2018-12-15T01:38:45.269Z,2.55
2018-12-15T01:38:45.842Z,2.59
2018-12-15T01:38:46.442Z,2.55
2018-12-15T01:38:47.042Z,2.61
2018-12-15T01:38:47.642Z,2.61
2018-12-15T01:38:48.245Z,2.52
2018-12-15T01:38:48.842Z,2.55
2018-12-15T01:38:49.448Z,2.53
2018-12-15T01:39:43.921Z,2.55
2018-12-15T01:39:44.517Z,2.56
2018-12-15T01:39:45.117Z,2.58
2018-12-15T01:39:45.722Z,2.58
2018-12-15T01:39:46.319Z,2.55
2018-12-15T01:39:46.916Z,2.58
2018-12-15T01:39:47.516Z,2.64
2018-12-15T01:39:48.119Z,2.52
2018-12-15T01:40:41.574Z,2.61
2018-12-15T01:40:42.170Z,2.52
2018-12-15T01:40:42.770Z,2.56
2018-12-15T01:40:43.370Z,2.52
2018-12-15T01:40:43.974Z,2.56
2018-12-15T01:40:44.569Z,2.53
2018-12-15T01:40:45.169Z,2.52
2018-12-15T01:40:45.769Z,2.58
2018-12-15T01:41:40.249Z,2.55
2018-12-15T01:41:40.846Z,2.63
2018-12-15T01:41:41.445Z,2.61
2018-12-15T01:41:42.044Z,2.55
2018-12-15T01:41:42.643Z,2.56
2018-12-15T01:41:43.244Z,2.55
2018-12-15T01:41:43.844Z,2.52
2018-12-15T01:41:44.445Z,2.55
2018-12-15T01:42:37.900Z,2.56
2018-12-15T01:42:38.497Z,2.58
2018-12-15T01:42:39.098Z,2.64
2018-12-15T01:42:39.697Z,2.58
2018-12-15T01:42:40.297Z,2.61
2018-12-15T01:42:40.896Z,2.56
2018-12-15T01:42:41.495Z,2.56
2018-12-15T01:42:42.096Z,2.59
2018-12-15T01:43:36.603Z,2.55
2018-12-15T01:43:37.172Z,2.51
2018-12-15T01:43:37.775Z,2.58
2018-12-15T01:43:38.374Z,2.58
2018-12-15T01:43:38.971Z,2.58
2018-12-15T01:43:39.574Z,2.61
2018-12-15T01:43:40.173Z,2.58
2018-12-15T01:43:40.771Z,2.56
2018-12-15T01:44:34.234Z,2.61
2018-12-15T01:44:34.836Z,2.56
2018-12-15T01:44:35.425Z,2.56
2018-12-15T01:44:36.026Z,2.58
2018-12-15T01:44:36.624Z,2.64
2018-12-15T01:44:37.224Z,2.58
2018-12-15T01:44:37.824Z,2.59
2018-12-15T01:44:38.423Z,2.61
2018-12-15T01:45:32.905Z,2.53
2018-12-15T01:45:33.499Z,2.63
2018-12-15T01:45:34.105Z,2.59
2018-12-15T01:45:34.701Z,2.59
2018-12-15T01:45:35.298Z,2.56
2018-12-15T01:45:35.899Z,2.63
2018-12-15T01:45:36.499Z,2.59
2018-12-15T01:45:37.102Z,2.56
2018-12-15T01:46:30.556Z,2.55
2018-12-15T01:46:31.152Z,2.53
2018-12-15T01:46:31.753Z,2.56
2018-12-15T01:46:32.352Z,2.51
2018-12-15T01:46:32.952Z,2.63
2018-12-15T01:46:33.552Z,2.56
2018-12-15T01:46:34.151Z,2.58
2018-12-15T01:46:34.752Z,2.52
2018-12-15T01:47:29.231Z,2.58
2018-12-15T01:47:29.828Z,2.61
2018-12-15T01:47:30.428Z,2.56
2018-12-15T01:47:31.027Z,2.66
2018-12-15T01:47:31.626Z,2.63
2018-12-15T01:47:32.229Z,2.61
2018-12-15T01:47:32.828Z,2.58
2018-12-15T01:47:33.426Z,2.56
2018-12-15T01:48:26.907Z,2.58
2018-12-15T01:48:27.479Z,2.59
2018-12-15T01:48:28.084Z,2.63
2018-12-15T01:48:28.679Z,2.61
2018-12-15T01:48:29.280Z,2.58
2018-12-15T01:48:29.886Z,2.63
2018-12-15T01:48:30.479Z,2.66
2018-12-15T01:48:31.078Z,2.61
2018-12-15T01:49:24.538Z,2.63
2018-12-15T01:49:25.136Z,2.59
2018-12-15T01:49:25.733Z,2.61
2018-12-15T01:49:26.336Z,2.56
2018-12-15T01:49:26.931Z,2.64
2018-12-15T01:49:27.531Z,2.64
2018-12-15T01:49:28.130Z,2.61
2018-12-15T01:49:28.732Z,2.58
2018-12-15T01:50:22.189Z,2.58
2018-12-15T01:50:22.782Z,2.66
2018-12-15T01:50:23.382Z,2.56
2018-12-15T01:50:23.982Z,2.56
2018-12-15T01:50:24.583Z,2.66
2018-12-15T01:50:25.182Z,2.59
2018-12-15T01:50:25.786Z,2.63
2018-12-15T01:50:26.385Z,2.59
2018-12-15T01:51:19.837Z,2.63
2018-12-15T01:51:20.435Z,2.58
2018-12-15T01:51:21.035Z,2.61
2018-12-15T01:51:21.635Z,2.63
2018-12-15T01:51:22.234Z,2.59
2018-12-15T01:51:22.834Z,2.56
2018-12-15T01:51:23.433Z,2.59
2018-12-15T01:51:24.038Z,2.58
2018-12-15T01:52:17.488Z,2.56
2018-12-15T01:52:18.087Z,2.52
2018-12-15T01:52:18.686Z,2.55
2018-12-15T01:52:19.287Z,2.61
2018-12-15T01:52:19.887Z,2.53
2018-12-15T01:52:20.485Z,2.61
2018-12-15T01:52:21.087Z,2.56
2018-12-15T01:52:21.688Z,2.58
2018-12-15T01:53:15.143Z,2.53
2018-12-15T01:53:15.738Z,2.59
2018-12-15T01:53:16.344Z,2.59
2018-12-15T01:53:16.949Z,2.52
2018-12-15T01:53:17.537Z,2.61
2018-12-15T01:53:18.139Z,2.58
2018-12-15T01:53:18.737Z,2.52
2018-12-15T01:53:19.343Z,2.51
2018-12-15T01:54:13.840Z,2.52
2018-12-15T01:54:14.414Z,2.59
2018-12-15T01:54:15.013Z,2.53
2018-12-15T01:54:15.612Z,2.52
2018-12-15T01:54:16.213Z,2.56
2018-12-15T01:54:16.814Z,2.58
2018-12-15T01:54:17.413Z,2.58
2018-12-15T01:54:18.013Z,2.58
2018-12-15T01:55:11.469Z,2.48
2018-12-15T01:55:12.065Z,2.51
2018-12-15T01:55:12.667Z,2.53
2018-12-15T01:55:13.266Z,2.49
2018-12-15T01:55:13.870Z,2.58
2018-12-15T01:55:14.483Z,2.58
2018-12-15T01:55:15.064Z,2.48
2018-12-15T01:55:15.664Z,2.55
2018-12-15T01:56:09.172Z,2.56
2018-12-15T01:56:09.715Z,2.55
2018-12-15T01:56:10.317Z,2.59
2018-12-15T01:56:10.917Z,2.53
2018-12-15T01:56:11.516Z,2.53
2018-12-15T01:56:12.115Z,2.51
2018-12-15T01:56:12.716Z,2.59
2018-12-15T01:56:13.315Z,2.52
2018-12-15T01:57:06.772Z,2.48
2018-12-15T01:57:07.371Z,2.46
2018-12-15T01:57:07.969Z,2.46
2018-12-15T01:57:08.568Z,2.46
2018-12-15T01:57:09.169Z,2.48
2018-12-15T01:57:09.771Z,2.46
2018-12-15T01:57:10.368Z,2.49
2018-12-15T01:57:10.968Z,2.48
2018-12-15T01:58:05.448Z,2.44
2018-12-15T01:58:06.045Z,2.51
2018-12-15T01:58:06.644Z,2.48
2018-12-15T01:58:07.244Z,2.46
2018-12-15T01:58:07.845Z,2.45
2018-12-15T01:58:08.443Z,2.51
2018-12-15T01:58:09.043Z,2.46
2018-12-15T01:58:09.645Z,2.46
2018-12-15T01:59:03.132Z,2.45
2018-12-15T01:59:03.697Z,2.45
2018-12-15T01:59:04.297Z,2.46
2018-12-15T01:59:04.896Z,2.41
2018-12-15T01:59:05.496Z,2.46
2018-12-15T01:59:06.100Z,2.49
2018-12-15T01:59:06.696Z,2.46
2018-12-15T01:59:07.295Z,2.48
2018-12-15T02:00:00.750Z,2.46
2018-12-15T02:00:01.349Z,2.46
2018-12-15T02:00:01.948Z,2.49
2018-12-15T02:00:02.547Z,2.49
2018-12-15T02:00:03.149Z,2.48
2018-12-15T02:00:03.747Z,2.49
2018-12-15T02:00:04.347Z,2.44
2018-12-15T02:00:04.998Z,2.52
2018-12-15T02:00:59.433Z,2.53
2018-12-15T02:01:00.024Z,2.58
2018-12-15T02:01:01.487Z,2.53
2018-12-15T02:01:01.988Z,2.59
2018-12-15T02:01:02.583Z,2.52
2018-12-15T02:01:03.180Z,2.56
2018-12-15T02:01:03.779Z,2.56
2018-12-15T02:01:57.283Z,2.55
2018-12-15T02:01:57.880Z,2.55
2018-12-15T02:01:58.484Z,2.53
2018-12-15T02:01:59.080Z,2.64
2018-12-15T02:01:59.679Z,2.58
2018-12-15T02:02:00.279Z,2.58
2018-12-15T02:02:00.883Z,2.63
2018-12-15T02:02:01.481Z,2.55
2018-12-15T02:02:54.933Z,2.59
2018-12-15T02:02:55.532Z,2.52
2018-12-15T02:02:56.131Z,2.51
2018-12-15T02:02:56.730Z,2.51
2018-12-15T02:02:57.331Z,2.51
2018-12-15T02:02:57.932Z,2.61
2018-12-15T02:02:58.531Z,2.53
2018-12-15T02:02:59.130Z,2.59
2018-12-15T02:03:53.609Z,2.53
2018-12-15T02:03:54.206Z,2.55
2018-12-15T02:03:54.807Z,2.63
2018-12-15T02:03:55.407Z,2.56
2018-12-15T02:03:56.006Z,2.55
2018-12-15T02:03:56.606Z,2.58
2018-12-15T02:03:57.205Z,2.52
2018-12-15T02:03:57.810Z,2.51
2018-12-15T02:04:52.312Z,2.41
2018-12-15T02:04:52.883Z,2.49
2018-12-15T02:04:53.483Z,2.55
2018-12-15T02:04:54.082Z,2.41
2018-12-15T02:04:54.682Z,2.51
2018-12-15T02:04:55.282Z,2.48
2018-12-15T02:04:55.881Z,2.53
2018-12-15T02:04:56.481Z,2.55
2018-12-15T02:05:49.937Z,2.51
2018-12-15T02:05:50.542Z,2.49
2018-12-15T02:05:51.135Z,2.48
2018-12-15T02:05:51.734Z,2.46
2018-12-15T02:05:52.335Z,2.45
2018-12-15T02:05:52.934Z,2.48
2018-12-15T02:05:53.533Z,2.46
2018-12-15T02:05:54.138Z,2.45
2018-12-15T02:06:48.612Z,2.59
2018-12-15T02:06:49.209Z,2.59
2018-12-15T02:06:49.810Z,2.55
2018-12-15T02:06:50.409Z,2.55